Time;durP1;ratioP1;P1;durP2;ratioP2;P2;SDS_P1;SDS_P2;PMS_P1;PMS_P2;Temp;Humidity;BMP_temperature;BMP_pressure;BME280_temperature;BME280_humidity;BME280_pressure;Samples;Min_cycle;Max_cycle;Signal;HPM_P1;HPM_P2
2021/10/27 00:00:29;;;;;;;;;;;13.60;99.90;;;;;;4958835;28;20605;-77
2021/10/27 00:02:55;;;;;;;;;;;13.60;99.90;;;;;;4957496;28;19926;-76
2021/10/27 00:05:23;;;;;;;;;;;13.60;99.90;;;;;;4959168;28;19927;-76
2021/10/27 00:07:50;;;;;;;;;;;13.60;99.90;;;;;;4954755;28;19933;-76
2021/10/27 00:10:17;;;;;;;;;;;13.60;99.90;;;;;;4951732;28;19931;-76
2021/10/27 00:12:44;;;;;;;;;;;13.60;99.90;;;;;;4956504;28;19927;-76
2021/10/27 00:15:12;;;;;;;;;;;13.60;99.90;;;;;;4958218;28;19926;-78
2021/10/27 00:17:38;;;;;;;;;;;13.60;99.90;;;;;;4957167;28;19926;-77
2021/10/27 00:20:06;;;;;;;;;;;13.50;99.90;;;;;;4952868;28;20279;-78
2021/10/27 00:22:34;;;;;;;;;;;13.50;99.90;;;;;;4956692;28;19930;-77
2021/10/27 00:25:01;;;;;;;;;;;13.50;99.90;;;;;;4950292;28;19926;-77
2021/10/27 00:27:28;;;;;;;;;;;13.50;99.90;;;;;;4954701;28;20420;-77
2021/10/27 00:29:54;;;;;;;;;;;13.50;99.90;;;;;;4958462;28;19936;-78
2021/10/27 00:32:21;;;;;;;;;;;13.50;99.90;;;;;;4959455;28;19926;-78
2021/10/27 00:34:48;;;;;;;;;;;13.50;99.90;;;;;;4958247;28;19932;-77
2021/10/27 00:37:14;;;;;;;;;;;13.50;99.90;;;;;;4963678;28;19926;-77
2021/10/27 00:39:43;;;;;;;;;;;13.50;99.90;;;;;;4964511;28;19926;-76
2021/10/27 00:42:11;;;;;;;;;;;13.50;99.90;;;;;;4955883;28;20265;-78
2021/10/27 00:44:38;;;;;;;;;;;13.50;99.90;;;;;;4953572;28;19931;-75
2021/10/27 00:47:05;;;;;;;;;;;13.50;99.90;;;;;;4957330;28;19931;-75
2021/10/27 00:49:33;;;;;;;;;;;13.50;99.90;;;;;;4958502;28;19926;-75
2021/10/27 00:51:59;;;;;;;;;;;13.50;99.90;;;;;;4962203;28;19932;-76
2021/10/27 00:54:26;;;;;;;;;;;13.50;99.90;;;;;;4956808;28;20324;-75
2021/10/27 00:56:55;;;;;;;;;;;13.50;99.90;;;;;;4962313;28;19926;-76
2021/10/27 00:59:22;;;;;;;;;;;13.50;99.90;;;;;;4957181;28;20916;-75
2021/10/27 01:01:49;;;;;;;;;;;13.40;99.90;;;;;;4949920;28;19927;-76
2021/10/27 01:04:16;;;;;;;;;;;13.40;99.90;;;;;;4964150;28;20024;-77
2021/10/27 01:06:43;;;;;;;;;;;13.40;99.90;;;;;;4953861;28;19933;-75
2021/10/27 01:09:10;;;;;;;;;;;13.40;99.90;;;;;;4953334;28;20830;-75
2021/10/27 01:11:38;;;;;;;;;;;13.40;99.90;;;;;;4960834;28;19927;-75
2021/10/27 01:14:06;;;;;;;;;;;13.40;99.90;;;;;;4961332;28;19948;-75
2021/10/27 01:16:32;;;;;;;;;;;13.40;99.90;;;;;;4955461;28;20386;-74
2021/10/27 01:18:59;;;;;;;;;;;13.40;99.90;;;;;;4959334;28;19927;-74
2021/10/27 01:21:29;;;;;;;;;;;13.30;99.90;;;;;;4957566;28;20299;-75
2021/10/27 01:23:56;;;;;;;;;;;13.20;99.90;;;;;;4957267;28;20011;-75
2021/10/27 01:26:23;;;;;;;;;;;13.10;99.90;;;;;;4956632;28;19930;-75
2021/10/27 01:28:49;;;;;;;;;;;13.00;99.90;;;;;;4957503;28;20313;-74
2021/10/27 01:31:16;;;;;;;;;;;13.00;99.90;;;;;;4952458;28;19948;-74
2021/10/27 01:33:44;;;;;;;;;;;12.90;99.90;;;;;;4961295;28;19926;-76
2021/10/27 01:36:11;;;;;;;;;;;12.80;99.90;;;;;;4954554;28;19937;-75
2021/10/27 01:38:39;;;;;;;;;;;12.80;99.90;;;;;;4950399;28;19933;-75
2021/10/27 01:41:05;;;;;;;;;;;12.80;99.90;;;;;;4952860;28;20152;-75
2021/10/27 01:43:32;;;;;;;;;;;12.80;99.90;;;;;;4956408;28;19952;-75
2021/10/27 01:45:59;;;;;;;;;;;12.70;99.90;;;;;;4951586;28;19941;-74
2021/10/27 01:48:25;;;;;;;;;;;12.70;99.90;;;;;;4950952;28;19927;-76
2021/10/27 01:50:52;;;;;;;;;;;12.70;99.90;;;;;;4961528;28;19927;-75
2021/10/27 01:53:18;;;;;;;;;;;12.60;99.90;;;;;;4957793;28;20436;-75
2021/10/27 01:55:46;;;;;;;;;;;12.60;99.90;;;;;;4957908;28;19926;-75
2021/10/27 01:58:13;;;;;;;;;;;12.60;99.90;;;;;;4955748;28;19933;-75
2021/10/27 02:00:40;;;;;;;;;;;12.60;99.90;;;;;;4958586;28;19937;-75
2021/10/27 02:03:06;;;;;;;;;;;12.60;99.90;;;;;;4957183;28;19926;-75
2021/10/27 02:05:33;;;;;;;;;;;12.50;99.90;;;;;;4948145;28;19980;-76
2021/10/27 02:07:59;;;;;;;;;;;12.50;99.90;;;;;;4960226;28;19926;-75
2021/10/27 02:10:26;;;;;;;;;;;12.50;99.90;;;;;;4963349;28;20020;-75
2021/10/27 02:12:55;;;;;;;;;;;12.40;99.90;;;;;;4954164;28;19931;-75
2021/10/27 02:15:21;;;;;;;;;;;12.40;99.90;;;;;;4961260;28;19938;-75
2021/10/27 02:17:49;;;;;;;;;;;12.40;99.90;;;;;;4955839;28;20013;-75
2021/10/27 02:20:16;;;;;;;;;;;12.40;99.90;;;;;;4954892;28;19926;-74
2021/10/27 02:22:43;;;;;;;;;;;12.40;99.90;;;;;;4954665;28;19927;-74
2021/10/27 02:25:09;;;;;;;;;;;12.40;99.90;;;;;;4956292;28;19926;-74
2021/10/27 02:27:36;;;;;;;;;;;12.30;99.90;;;;;;4956386;28;19932;-75
2021/10/27 02:30:05;;;;;;;;;;;12.30;99.90;;;;;;4961832;28;19926;-74
2021/10/27 02:32:31;;;;;;;;;;;12.30;99.90;;;;;;4963528;28;19926;-74
2021/10/27 02:34:58;;;;;;;;;;;12.40;99.90;;;;;;4959679;28;20025;-74
2021/10/27 02:37:24;;;;;;;;;;;12.40;99.90;;;;;;4961627;28;20113;-75
2021/10/27 02:39:51;;;;;;;;;;;12.40;99.90;;;;;;4966464;28;20304;-73
2021/10/27 02:42:18;;;;;;;;;;;12.50;99.90;;;;;;4954237;28;19931;-76
2021/10/27 02:44:45;;;;;;;;;;;12.50;99.90;;;;;;4968531;28;19933;-75
2021/10/27 02:47:13;;;;;;;;;;;12.50;99.90;;;;;;4960309;28;19933;-73
2021/10/27 02:49:39;;;;;;;;;;;12.60;99.90;;;;;;4970422;28;19926;-76
2021/10/27 02:52:06;;;;;;;;;;;12.60;99.90;;;;;;4959747;28;20308;-73
2021/10/27 02:54:33;;;;;;;;;;;12.70;99.90;;;;;;4959034;28;19937;-75
2021/10/27 02:57:00;;;;;;;;;;;12.80;99.90;;;;;;4963130;28;19926;-75
2021/10/27 02:59:26;;;;;;;;;;;12.80;99.90;;;;;;4963466;28;19958;-75
2021/10/27 03:01:53;;;;;;;;;;;12.90;99.90;;;;;;4963402;28;19926;-74
2021/10/27 03:04:21;;;;;;;;;;;12.90;99.90;;;;;;4960413;28;20286;-74
2021/10/27 03:06:47;;;;;;;;;;;12.90;99.90;;;;;;4963754;28;20009;-75
2021/10/27 03:09:14;;;;;;;;;;;12.90;99.90;;;;;;4960216;28;19927;-74
2021/10/27 03:11:41;;;;;;;;;;;12.90;99.90;;;;;;4959170;28;19965;-74
2021/10/27 03:14:08;;;;;;;;;;;12.90;99.90;;;;;;4952492;28;19930;-75
2021/10/27 03:16:35;;;;;;;;;;;12.90;99.90;;;;;;4960288;28;19927;-75
2021/10/27 03:19:01;;;;;;;;;;;12.90;99.90;;;;;;4964001;28;20397;-74
2021/10/27 03:21:29;;;;;;;;;;;12.90;99.90;;;;;;4965638;28;20005;-74
2021/10/27 03:23:57;;;;;;;;;;;12.90;99.90;;;;;;4958167;28;20017;-74
2021/10/27 03:26:24;;;;;;;;;;;12.90;99.90;;;;;;4952125;28;19927;-74
2021/10/27 03:28:50;;;;;;;;;;;12.90;99.90;;;;;;4958851;28;19932;-74
2021/10/27 03:31:17;;;;;;;;;;;12.90;99.90;;;;;;4955633;28;19930;-75
2021/10/27 03:33:43;;;;;;;;;;;12.90;99.90;;;;;;4956601;28;19930;-75
2021/10/27 03:36:10;;;;;;;;;;;12.80;99.90;;;;;;4962708;28;19926;-74
2021/10/27 03:38:38;;;;;;;;;;;12.90;99.90;;;;;;4961142;28;20377;-74
2021/10/27 03:41:05;;;;;;;;;;;13.10;99.90;;;;;;4957489;28;20020;-75
2021/10/27 03:43:31;;;;;;;;;;;12.90;99.90;;;;;;4960566;28;19926;-74
2021/10/27 03:45:58;;;;;;;;;;;12.90;99.90;;;;;;4964558;28;19925;-74
2021/10/27 03:48:25;;;;;;;;;;;12.80;99.90;;;;;;4960004;28;19926;-73
2021/10/27 03:50:52;;;;;;;;;;;12.70;99.90;;;;;;4964326;28;19933;-74
2021/10/27 03:53:18;;;;;;;;;;;12.70;99.90;;;;;;4964595;28;19930;-73
2021/10/27 03:55:46;;;;;;;;;;;12.70;99.90;;;;;;4956493;28;20025;-74
2021/10/27 03:58:13;;;;;;;;;;;12.60;99.90;;;;;;4959471;28;20016;-74
2021/10/27 04:00:40;;;;;;;;;;;12.70;99.90;;;;;;4958923;28;19933;-73
2021/10/27 04:03:06;;;;;;;;;;;12.70;99.90;;;;;;4962127;28;19973;-74
2021/10/27 04:05:33;;;;;;;;;;;12.70;99.90;;;;;;4957487;28;19969;-74
2021/10/27 04:08:00;;;;;;;;;;;12.80;99.90;;;;;;4953414;28;19937;-75
2021/10/27 04:10:27;;;;;;;;;;;12.80;99.90;;;;;;4962864;28;19987;-75
2021/10/27 04:12:54;;;;;;;;;;;12.80;99.90;;;;;;4960711;28;19944;-76
2021/10/27 04:15:21;;;;;;;;;;;12.90;99.90;;;;;;4967108;28;19933;-75
2021/10/27 04:17:48;;;;;;;;;;;12.90;99.90;;;;;;4966580;28;20365;-76
2021/10/27 04:20:15;;;;;;;;;;;12.90;99.90;;;;;;4957562;28;19926;-72
2021/10/27 04:22:41;;;;;;;;;;;12.90;99.90;;;;;;4960862;28;19936;-73
2021/10/27 04:25:10;;;;;;;;;;;12.80;99.90;;;;;;4961886;28;19926;-72
2021/10/27 04:27:37;;;;;;;;;;;12.90;99.90;;;;;;4962787;28;20017;-71
2021/10/27 04:30:06;;;;;;;;;;;12.90;99.90;;;;;;4950144;28;19934;-72
2021/10/27 04:32:32;;;;;;;;;;;12.90;99.90;;;;;;4962697;28;19948;-72
2021/10/27 04:34:59;;;;;;;;;;;12.90;99.90;;;;;;4962276;28;19936;-72
2021/10/27 04:37:26;;;;;;;;;;;12.80;99.90;;;;;;4956012;28;20012;-72
2021/10/27 04:39:53;;;;;;;;;;;12.80;99.90;;;;;;4961078;28;19926;-72
2021/10/27 04:42:20;;;;;;;;;;;12.90;99.90;;;;;;4963735;28;19926;-72
2021/10/27 04:44:46;;;;;;;;;;;12.80;99.90;;;;;;4962024;28;19926;-72
2021/10/27 04:47:14;;;;;;;;;;;12.80;99.90;;;;;;4952654;28;19927;-73
2021/10/27 04:49:41;;;;;;;;;;;12.80;99.90;;;;;;4956363;28;19930;-72
2021/10/27 04:52:08;;;;;;;;;;;12.80;99.90;;;;;;4954967;28;19926;-72
2021/10/27 04:54:35;;;;;;;;;;;12.80;99.90;;;;;;4959033;28;19974;-71
2021/10/27 04:57:02;;;;;;;;;;;12.80;99.90;;;;;;4950478;28;20400;-72
2021/10/27 04:59:35;;;;;;;;;;;12.80;99.90;;;;;;4953323;28;19980;-72
2021/10/27 05:02:03;;;;;;;;;;;12.80;99.90;;;;;;4949453;28;19927;-72
2021/10/27 05:04:31;;;;;;;;;;;12.70;99.90;;;;;;4963768;28;19931;-72
2021/10/27 05:06:58;;;;;;;;;;;12.80;99.90;;;;;;4953602;28;19926;-73
2021/10/27 05:09:25;;;;;;;;;;;12.70;99.90;;;;;;4954082;28;19934;-73
2021/10/27 05:11:52;;;;;;;;;;;12.70;99.90;;;;;;4957663;28;19926;-72
2021/10/27 05:14:18;;;;;;;;;;;12.80;99.90;;;;;;4956904;28;19945;-72
2021/10/27 05:16:45;;;;;;;;;;;12.70;99.90;;;;;;4949651;28;20327;-74
2021/10/27 05:19:12;;;;;;;;;;;12.70;99.90;;;;;;4951254;28;19933;-73
2021/10/27 05:21:40;;;;;;;;;;;12.70;99.90;;;;;;4952053;28;19933;-72
2021/10/27 05:24:06;;;;;;;;;;;12.70;99.90;;;;;;4958653;28;19927;-72
2021/10/27 05:26:33;;;;;;;;;;;12.60;99.90;;;;;;4958006;28;19930;-73
2021/10/27 05:29:00;;;;;;;;;;;12.60;99.90;;;;;;4955589;28;20349;-73
2021/10/27 05:31:27;;;;;;;;;;;12.60;99.90;;;;;;4951005;28;19935;-73
2021/10/27 05:33:53;;;;;;;;;;;12.60;99.90;;;;;;4953215;28;19933;-73
2021/10/27 05:36:20;;;;;;;;;;;12.60;99.90;;;;;;4960284;28;19930;-74
2021/10/27 05:38:48;;;;;;;;;;;12.50;99.90;;;;;;4949685;28;19956;-74
2021/10/27 05:41:15;;;;;;;;;;;12.50;99.90;;;;;;4960073;28;19934;-74
2021/10/27 05:43:42;;;;;;;;;;;12.40;99.90;;;;;;4954385;28;19995;-74
2021/10/27 05:46:09;;;;;;;;;;;12.30;99.90;;;;;;4951218;28;19972;-75
2021/10/27 05:48:39;;;;;;;;;;;12.30;99.90;;;;;;4950014;28;20024;-73
2021/10/27 05:51:20;;;;;;;;;;;12.20;99.90;;;;;;4951895;28;19926;-73
2021/10/27 05:56:33;;;;;;;;;;;12.20;99.90;;;;;;4960644;28;21290;-74
2021/10/27 05:59:02;;;;;;;;;;;12.10;99.90;;;;;;4954770;28;19976;-73
2021/10/27 06:01:29;;;;;;;;;;;12.10;99.90;;;;;;4957632;28;20009;-72
2021/10/27 06:03:56;;;;;;;;;;;12.00;99.90;;;;;;4958064;28;19972;-73
2021/10/27 06:06:22;;;;;;;;;;;12.00;99.90;;;;;;4951694;28;19926;-73
2021/10/27 06:08:52;;;;;;;;;;;12.00;99.90;;;;;;4952634;28;20416;-72
2021/10/27 06:11:19;;;;;;;;;;;12.10;99.90;;;;;;4955742;28;19927;-73
2021/10/27 06:13:46;;;;;;;;;;;12.10;99.90;;;;;;4956731;28;20143;-73
2021/10/27 06:16:13;;;;;;;;;;;12.10;99.90;;;;;;4957575;28;19934;-72
2021/10/27 06:18:40;;;;;;;;;;;12.10;99.90;;;;;;4957730;28;19934;-73
2021/10/27 06:21:07;;;;;;;;;;;12.10;99.90;;;;;;4966388;28;19926;-73
2021/10/27 06:23:34;;;;;;;;;;;12.10;99.90;;;;;;4966858;28;19937;-73
2021/10/27 06:26:03;;;;;;;;;;;12.20;99.90;;;;;;4957548;28;20333;-73
2021/10/27 06:28:32;;;;;;;;;;;12.20;99.90;;;;;;4967720;28;19934;-73
2021/10/27 06:31:06;;;;;;;;;;;12.30;99.90;;;;;;4958764;28;19938;-73
2021/10/27 06:33:47;;;;;;;;;;;12.30;99.90;;;;;;4957756;28;19964;-73
2021/10/27 06:36:18;;;;;;;;;;;12.30;99.90;;;;;;4964367;28;20060;-72
2021/10/27 06:39:04;;;;;;;;;;;12.40;99.90;;;;;;4960674;28;19930;-72
2021/10/27 06:47:12;;;;;;;;;;;12.50;99.90;;;;;;4956562;28;19946;-73
2021/10/27 06:49:39;;;;;;;;;;;12.50;99.90;;;;;;4970061;28;19930;-73
2021/10/27 06:52:05;;;;;;;;;;;12.50;99.90;;;;;;4964059;28;19931;-73
2021/10/27 06:54:32;;;;;;;;;;;12.50;99.90;;;;;;4965397;28;20392;-72
2021/10/27 06:57:00;;;;;;;;;;;12.50;99.90;;;;;;4966050;28;19940;-72
2021/10/27 06:59:31;;;;;;;;;;;12.60;99.90;;;;;;4955781;28;19945;-72
2021/10/27 07:02:30;;;;;;;;;;;12.60;99.90;;;;;;4959255;28;19926;-72
2021/10/27 07:05:13;;;;;;;;;;;12.60;99.90;;;;;;4959950;28;19952;-72
2021/10/27 07:16:02;;;;;;;;;;;12.50;99.90;;;;;;4953608;28;20080;-73
2021/10/27 07:18:28;;;;;;;;;;;12.50;99.90;;;;;;4954073;28;20586;-72
2021/10/27 07:20:55;;;;;;;;;;;12.50;99.90;;;;;;4963401;28;20300;-72
2021/10/27 07:23:22;;;;;;;;;;;12.50;99.90;;;;;;4964838;28;19934;-72
2021/10/27 07:25:56;;;;;;;;;;;12.50;99.90;;;;;;4959508;28;20340;-72
2021/10/27 07:28:25;;;;;;;;;;;12.50;99.90;;;;;;4960039;28;19926;-73
2021/10/27 07:30:52;;;;;;;;;;;12.50;99.90;;;;;;4966552;28;19941;-75
2021/10/27 07:33:19;;;;;;;;;;;12.50;99.90;;;;;;4964102;28;20017;-76
2021/10/27 07:35:49;;;;;;;;;;;12.50;99.90;;;;;;4953824;28;19933;-75
2021/10/27 07:41:00;;;;;;;;;;;12.40;99.90;;;;;;4960833;28;19979;-76
2021/10/27 07:43:30;;;;;;;;;;;12.50;99.90;;;;;;4972282;28;20389;-75
2021/10/27 07:45:57;;;;;;;;;;;12.60;99.90;;;;;;4959454;28;19926;-75
2021/10/27 07:48:24;;;;;;;;;;;12.60;99.90;;;;;;4967560;28;19931;-75
2021/10/27 07:50:51;;;;;;;;;;;12.70;99.90;;;;;;4960255;28;20026;-74
2021/10/27 07:53:18;;;;;;;;;;;12.70;99.90;;;;;;4961263;28;19957;-76
2021/10/27 07:55:45;;;;;;;;;;;12.60;99.90;;;;;;4955872;28;19930;-75
2021/10/27 07:58:12;;;;;;;;;;;12.70;99.90;;;;;;4954417;28;19933;-77
2021/10/27 08:00:41;;;;;;;;;;;12.70;99.90;;;;;;4954592;28;19928;-74
2021/10/27 08:03:08;;;;;;;;;;;12.70;99.90;;;;;;4965279;28;19932;-75
2021/10/27 08:05:38;;;;;;;;;;;12.70;99.90;;;;;;4964719;28;19933;-75
2021/10/27 08:08:05;;;;;;;;;;;12.60;99.90;;;;;;4957797;28;19949;-75
2021/10/27 08:10:32;;;;;;;;;;;12.70;99.90;;;;;;4956305;28;19936;-74
2021/10/27 08:12:59;;;;;;;;;;;12.80;99.90;;;;;;4962555;28;20005;-76
2021/10/27 08:15:26;;;;;;;;;;;13.00;99.90;;;;;;4958574;28;20029;-76
2021/10/27 08:17:54;;;;;;;;;;;13.00;99.90;;;;;;4976312;28;19930;-77
2021/10/27 08:20:23;;;;;;;;;;;13.00;99.90;;;;;;4985039;28;20465;-76
2021/10/27 08:22:54;;;;;;;;;;;13.20;99.90;;;;;;4953868;28;19979;-75
2021/10/27 08:25:27;;;;;;;;;;;13.40;99.90;;;;;;4968228;28;19973;-76
2021/10/27 08:27:55;;;;;;;;;;;13.40;99.90;;;;;;4963401;28;20703;-77
2021/10/27 08:30:31;;;;;;;;;;;13.30;99.90;;;;;;4959196;28;20016;-75
2021/10/27 08:33:00;;;;;;;;;;;13.40;99.90;;;;;;4961610;28;19929;-75
2021/10/27 08:35:29;;;;;;;;;;;13.30;99.90;;;;;;4971775;28;20340;-75
2021/10/27 08:37:57;;;;;;;;;;;13.20;99.90;;;;;;4966909;28;19953;-73
2021/10/27 08:40:24;;;;;;;;;;;13.30;99.90;;;;;;4963511;28;20301;-72
2021/10/27 08:42:50;;;;;;;;;;;13.30;99.90;;;;;;4971833;28;20308;-72
2021/10/27 08:45:17;;;;;;;;;;;13.30;99.90;;;;;;4958877;28;19932;-73
2021/10/27 08:47:47;;;;;;;;;;;13.40;99.90;;;;;;4954366;28;19926;-72
2021/10/27 08:50:16;;;;;;;;;;;13.40;99.90;;;;;;4962272;28;19960;-72
2021/10/27 08:52:43;;;;;;;;;;;13.50;99.90;;;;;;4977603;28;19927;-72
2021/10/27 08:55:13;;;;;;;;;;;13.50;99.90;;;;;;4951051;28;19926;-72
2021/10/27 08:57:40;;;;;;;;;;;13.50;99.90;;;;;;4957545;28;19927;-73
2021/10/27 09:00:13;;;;;;;;;;;13.50;99.90;;;;;;4960972;28;19926;-75
2021/10/27 09:02:53;;;;;;;;;;;13.50;99.90;;;;;;4963700;28;19933;-74
2021/10/27 09:05:33;;;;;;;;;;;13.50;99.90;;;;;;4957636;28;19926;-74
2021/10/27 09:16:28;;;;;;;;;;;13.40;99.90;;;;;;4956995;28;20340;-73
2021/10/27 09:35:42;;;;;;;;;;;13.70;99.90;;;;;;4968030;28;19972;-73
2021/10/27 09:55:54;;;;;;;;;;;13.90;99.90;;;;;;5072094;28;19980;-75
2021/10/27 10:06:43;;;;;;;;;;;14.00;99.90;;;;;;5092399;28;20019;-75
2021/10/27 10:09:10;;;;;;;;;;;14.10;99.90;;;;;;5103271;28;19989;-75
2021/10/27 10:11:37;;;;;;;;;;;14.20;99.90;;;;;;5102438;28;20019;-74
2021/10/27 10:14:07;;;;;;;;;;;14.20;99.90;;;;;;5091137;28;19954;-73
2021/10/27 10:16:36;;;;;;;;;;;14.40;99.90;;;;;;5097126;28;19975;-75
2021/10/27 10:19:06;;;;;;;;;;;14.50;99.90;;;;;;5090906;28;20009;-77
2021/10/27 10:21:35;;;;;;;;;;;14.50;99.90;;;;;;5102761;28;19924;-75
2021/10/27 10:24:23;;;;;;;;;;;14.50;99.90;;;;;;5096997;28;20377;-77
2021/10/27 10:26:50;;;;;;;;;;;14.60;99.90;;;;;;5103759;28;19930;-76
2021/10/27 10:29:32;;;;;;;;;;;14.60;99.90;;;;;;5107676;28;19928;-76
2021/10/27 10:32:21;;;;;;;;;;;14.50;99.90;;;;;;5094406;28;20418;-73
2021/10/27 10:34:52;;;;;;;;;;;14.70;99.90;;;;;;5089610;28;19928;-81
2021/10/27 10:37:29;;;;;;;;;;;14.80;99.90;;;;;;5092112;28;20241;-78
2021/10/27 10:39:58;;;;;;;;;;;14.90;99.90;;;;;;5104247;28;19932;-79
2021/10/27 10:42:47;;;;;;;;;;;14.90;99.90;;;;;;5120603;27;19951;-76
2021/10/27 11:00:09;;;;;;;;;;;16.00;99.90;;;;;;5100314;27;20395;-75
2021/10/27 11:23:07;;;;;;;;;;;16.00;99.90;;;;;;5134615;27;19990;-75
2021/10/27 11:25:48;;;;;;;;;;;16.10;99.90;;;;;;5133665;27;19995;-73
2021/10/27 11:39:35;;;;;;;;;;;16.00;99.90;;;;;;5134551;27;19935;-73
2021/10/27 11:42:10;;;;;;;;;;;16.20;99.90;;;;;;5137015;27;20315;-74
2021/10/27 11:44:44;;;;;;;;;;;16.30;99.90;;;;;;5134031;27;19924;-73
2021/10/27 11:47:11;;;;;;;;;;;16.30;99.90;;;;;;5134198;27;20005;-74
2021/10/27 11:49:40;;;;;;;;;;;16.30;99.90;;;;;;5138353;27;20374;-74
2021/10/27 11:52:07;;;;;;;;;;;16.10;99.90;;;;;;5129200;27;20397;-74
2021/10/27 11:54:36;;;;;;;;;;;16.00;99.90;;;;;;5134363;27;19924;-74
2021/10/27 11:57:03;;;;;;;;;;;16.10;99.90;;;;;;5128603;27;19927;-75
2021/10/27 11:59:38;;;;;;;;;;;16.20;99.90;;;;;;5129866;27;19927;-74
2021/10/27 12:02:05;;;;;;;;;;;16.30;99.90;;;;;;5134145;27;19931;-74
2021/10/27 12:04:33;;;;;;;;;;;16.40;99.90;;;;;;5130404;27;20000;-74
2021/10/27 12:07:12;;;;;;;;;;;16.40;99.90;;;;;;5129974;27;19972;-73
2021/10/27 12:09:49;;;;;;;;;;;16.50;99.90;;;;;;5132467;27;19931;-74
2021/10/27 12:12:48;;;;;;;;;;;16.40;99.90;;;;;;5134963;27;20339;-73
2021/10/27 12:15:40;;;;;;;;;;;16.50;99.90;;;;;;5128227;27;19924;-74
2021/10/27 12:18:08;;;;;;;;;;;16.70;99.90;;;;;;5116008;27;19924;-73
2021/10/27 12:20:39;;;;;;;;;;;16.70;99.90;;;;;;5116672;27;19927;-75
2021/10/27 12:23:06;;;;;;;;;;;16.60;99.90;;;;;;5118109;27;20026;-73
2021/10/27 12:25:36;;;;;;;;;;;16.70;99.90;;;;;;5118256;27;19943;-74
2021/10/27 12:28:06;;;;;;;;;;;16.50;99.90;;;;;;5113876;27;20288;-73
2021/10/27 12:30:40;;;;;;;;;;;16.70;99.90;;;;;;5120055;27;20432;-74
2021/10/27 12:33:07;;;;;;;;;;;17.00;99.90;;;;;;5119480;27;19996;-74
2021/10/27 12:35:34;;;;;;;;;;;17.20;99.90;;;;;;5121959;27;19958;-74
2021/10/27 12:38:08;;;;;;;;;;;17.20;99.90;;;;;;5124819;27;19967;-73
2021/10/27 12:40:39;;;;;;;;;;;16.90;99.90;;;;;;5123223;27;19985;-74
2021/10/27 12:43:07;;;;;;;;;;;17.00;99.90;;;;;;5122113;27;19951;-74
2021/10/27 12:45:37;;;;;;;;;;;17.00;99.90;;;;;;5118690;27;19927;-73
2021/10/27 12:48:05;;;;;;;;;;;17.00;99.90;;;;;;5120959;27;20013;-74
2021/10/27 12:50:32;;;;;;;;;;;17.00;99.90;;;;;;5115696;27;19971;-74
2021/10/27 12:53:00;;;;;;;;;;;17.10;99.90;;;;;;5116908;27;20019;-75
2021/10/27 12:55:28;;;;;;;;;;;17.30;99.90;;;;;;5115249;27;20382;-73
2021/10/27 12:58:02;;;;;;;;;;;17.30;97.50;;;;;;5115765;27;20275;-75
2021/10/27 13:00:34;;;;;;;;;;;17.20;95.30;;;;;;5115146;27;19931;-74
2021/10/27 13:03:16;;;;;;;;;;;17.10;94.40;;;;;;5120294;27;19928;-74
2021/10/27 13:05:47;;;;;;;;;;;17.00;94.10;;;;;;5115176;27;19939;-74
2021/10/27 13:11:06;;;;;;;;;;;16.90;94.10;;;;;;5119859;27;19968;-74
2021/10/27 13:13:48;;;;;;;;;;;16.90;94.20;;;;;;5112793;27;19987;-74
2021/10/27 13:16:30;;;;;;;;;;;16.80;94.30;;;;;;5113809;27;19967;-73
2021/10/27 13:19:06;;;;;;;;;;;16.80;95.10;;;;;;5112573;27;19987;-72
2021/10/27 13:21:44;;;;;;;;;;;16.80;95.60;;;;;;5119384;27;19928;-72
2021/10/27 13:29:48;;;;;;;;;;;16.90;95.80;;;;;;5125586;27;19934;-72
2021/10/27 13:32:17;;;;;;;;;;;16.90;96.50;;;;;;5113993;27;19935;-73
2021/10/27 13:34:44;;;;;;;;;;;16.80;96.60;;;;;;5118274;27;19923;-73
2021/10/27 13:37:11;;;;;;;;;;;16.70;97.20;;;;;;5121850;27;19928;-72
2021/10/27 13:39:38;;;;;;;;;;;16.70;97.50;;;;;;5121641;27;19931;-73
2021/10/27 13:42:10;;;;;;;;;;;16.60;97.60;;;;;;5121507;27;19928;-73
2021/10/27 13:44:42;;;;;;;;;;;16.60;97.90;;;;;;5121268;27;19923;-76
2021/10/27 13:47:24;;;;;;;;;;;16.60;98.00;;;;;;5116422;27;20335;-75
2021/10/27 13:49:57;;;;;;;;;;;16.60;98.30;;;;;;5112738;27;19923;-73
2021/10/27 14:06:10;;;;;;;;;;;16.50;99.40;;;;;;5125195;27;20447;-71
2021/10/27 14:08:50;;;;;;;;;;;16.50;99.60;;;;;;5116078;27;19924;-73
2021/10/27 14:11:23;;;;;;;;;;;16.50;99.60;;;;;;5117934;27;19928;-73
2021/10/27 14:14:00;;;;;;;;;;;16.50;99.70;;;;;;5121021;27;19924;-77
2021/10/27 14:22:24;;;;;;;;;;;16.30;99.90;;;;;;5121005;27;19931;-76
2021/10/27 14:47:19;;;;;;;;;;;16.10;99.90;;;;;;5114939;27;20303;-74
2021/10/27 15:20:04;;;;;;;;;;;15.70;99.90;;;;;;5122488;28;19999;-73
2021/10/27 15:22:45;;;;;;;;;;;15.60;99.90;;;;;;5120449;27;19923;-72
2021/10/27 15:28:10;;;;;;;;;;;15.50;99.90;;;;;;5121283;27;19927;-74
2021/10/27 15:30:43;;;;;;;;;;;15.50;99.90;;;;;;5115723;27;19979;-73
2021/10/27 15:33:27;;;;;;;;;;;15.40;99.90;;;;;;5117228;27;19924;-73
2021/10/27 15:36:02;;;;;;;;;;;15.30;99.90;;;;;;5113083;28;20015;-75
2021/10/27 15:41:23;;;;;;;;;;;15.30;99.90;;;;;;5118485;28;20574;-74
2021/10/27 15:52:10;;;;;;;;;;;15.10;99.90;;;;;;5126131;27;19939;-73
2021/10/27 15:54:36;;;;;;;;;;;15.00;99.90;;;;;;5124821;27;19924;-73
2021/10/27 15:57:04;;;;;;;;;;;15.00;99.90;;;;;;5123070;27;19941;-73
2021/10/27 15:59:31;;;;;;;;;;;14.90;99.90;;;;;;5126568;27;20400;-73
2021/10/27 16:01:58;;;;;;;;;;;14.80;99.90;;;;;;5120192;27;20030;-72
2021/10/27 16:04:24;;;;;;;;;;;14.80;99.90;;;;;;5126164;27;20014;-73
2021/10/27 16:06:52;;;;;;;;;;;14.70;99.90;;;;;;5118480;27;19930;-72
2021/10/27 16:09:20;;;;;;;;;;;14.60;99.90;;;;;;5123637;27;19923;-74
2021/10/27 16:11:47;;;;;;;;;;;14.60;99.90;;;;;;5124067;27;19984;-74
2021/10/27 16:14:20;;;;;;;;;;;14.50;99.90;;;;;;5119857;27;19935;-75
2021/10/27 16:16:47;;;;;;;;;;;14.40;99.90;;;;;;5114143;27;20446;-74
2021/10/27 16:19:13;;;;;;;;;;;14.40;99.90;;;;;;5125186;27;20565;-75
2021/10/27 16:21:41;;;;;;;;;;;14.30;99.90;;;;;;5125161;27;20326;-74
2021/10/27 16:24:08;;;;;;;;;;;14.20;99.90;;;;;;5123364;27;20394;-73
2021/10/27 16:26:34;;;;;;;;;;;14.20;99.90;;;;;;5120960;27;19924;-73
2021/10/27 16:29:01;;;;;;;;;;;14.10;99.90;;;;;;5119134;27;19966;-75
2021/10/27 16:31:30;;;;;;;;;;;14.10;99.90;;;;;;5125356;27;19931;-73
2021/10/27 16:33:56;;;;;;;;;;;14.00;99.90;;;;;;5119414;27;20314;-74
2021/10/27 16:36:23;;;;;;;;;;;13.90;99.90;;;;;;5121646;27;20018;-75
2021/10/27 16:38:50;;;;;;;;;;;13.90;99.90;;;;;;5115380;27;19927;-75
2021/10/27 16:41:17;;;;;;;;;;;13.80;99.90;;;;;;5118292;27;20303;-74
2021/10/27 16:43:44;;;;;;;;;;;13.70;99.90;;;;;;5126949;27;19923;-75
2021/10/27 16:46:11;;;;;;;;;;;13.70;99.90;;;;;;5117935;27;19938;-75
2021/10/27 16:48:40;;;;;;;;;;;13.60;99.90;;;;;;5119625;27;19955;-74
2021/10/27 16:51:06;;;;;;;;;;;13.60;99.90;;;;;;5124448;27;20306;-74
2021/10/27 16:53:33;;;;;;;;;;;13.50;99.90;;;;;;5124900;27;19930;-74
2021/10/27 16:55:59;;;;;;;;;;;13.50;99.90;;;;;;5131504;27;19929;-75
2021/10/27 16:58:28;;;;;;;;;;;13.40;99.90;;;;;;5126455;27;19924;-74
2021/10/27 17:00:55;;;;;;;;;;;13.40;99.90;;;;;;5120991;27;20429;-74
2021/10/27 17:03:22;;;;;;;;;;;13.30;99.90;;;;;;5125089;27;19943;-74
2021/10/27 17:05:50;;;;;;;;;;;13.20;99.90;;;;;;5124872;27;19923;-75
2021/10/27 17:08:20;;;;;;;;;;;13.20;99.90;;;;;;5118662;27;20038;-75
2021/10/27 17:10:49;;;;;;;;;;;13.20;99.90;;;;;;5120706;27;19955;-75
2021/10/27 17:13:16;;;;;;;;;;;13.10;99.90;;;;;;5123880;27;19931;-77
2021/10/27 17:15:43;;;;;;;;;;;13.10;99.90;;;;;;5122489;27;19930;-78
2021/10/27 17:18:10;;;;;;;;;;;13.10;99.90;;;;;;5118938;27;19951;-74
2021/10/27 17:20:36;;;;;;;;;;;13.00;99.90;;;;;;5124978;27;19924;-78
2021/10/27 17:23:05;;;;;;;;;;;13.00;99.90;;;;;;5124743;27;19923;-76
2021/10/27 17:25:33;;;;;;;;;;;13.00;99.90;;;;;;5124576;27;19933;-76
2021/10/27 17:28:00;;;;;;;;;;;12.90;99.90;;;;;;5117411;27;19935;-77
2021/10/27 17:30:27;;;;;;;;;;;12.90;99.90;;;;;;5118831;27;19927;-76
2021/10/27 17:32:55;;;;;;;;;;;12.90;99.90;;;;;;5119988;27;20364;-77
2021/10/27 17:35:22;;;;;;;;;;;12.80;99.90;;;;;;5128497;27;19927;-76
2021/10/27 17:37:50;;;;;;;;;;;12.80;99.90;;;;;;5117297;27;19974;-77
2021/10/27 17:40:23;;;;;;;;;;;12.80;99.90;;;;;;5122991;27;19927;-76
2021/10/27 17:42:50;;;;;;;;;;;12.80;99.90;;;;;;5121046;27;19963;-76
2021/10/27 17:45:20;;;;;;;;;;;12.80;99.90;;;;;;5113310;27;19964;-76
2021/10/27 17:47:49;;;;;;;;;;;12.70;99.90;;;;;;5116814;27;19924;-76
2021/10/27 17:50:25;;;;;;;;;;;12.70;99.90;;;;;;5122959;27;19924;-77
2021/10/27 18:01:00;;;;;;;;;;;12.50;99.90;;;;;;5119368;27;19930;-75
2021/10/27 18:03:27;;;;;;;;;;;12.50;99.90;;;;;;5119267;27;19924;-75
2021/10/27 18:05:54;;;;;;;;;;;12.40;99.90;;;;;;5125517;27;20022;-74